Time;durP1;ratioP1;P1;durP2;ratioP2;P2;SDS_P1;SDS_P2;PMS_P1;PMS_P2;Temp;Humidity;BMP_temperature;BMP_pressure;BME280_temperature;BME280_humidity;BME280_pressure;Samples;Min_cycle;Max_cycle;Signal;HPM_P1;HPM_P2
2023/04/16 04:49:16;;;;;;;1999.90;999.90;;;;;;;;;;5217040;23;20054;-60
2023/04/16 04:51:42;;;;;;;1999.90;999.90;;;;;;;;;;4954198;28;20030;-60
2023/04/16 04:54:08;;;;;;;1999.90;999.90;;;;;;;;;;4971029;28;20066;-61
2023/04/16 04:56:34;;;;;;;1999.90;999.90;;;;;;;;;;4954085;28;20381;-61
2023/04/16 04:59:04;;;;;;;1999.90;999.90;;;;;;;;;;4971678;28;20023;-61
2023/04/16 05:01:30;;;;;;;1999.90;999.90;;;;;;;;;;4971315;28;20549;-61
2023/04/16 05:03:56;;;;;;;1999.90;999.90;;;;;;;;;;4973704;28;20018;-62
2023/04/16 05:06:22;;;;;;;1999.90;999.90;;;;;;;;;;4975029;28;20467;-62
2023/04/16 05:08:48;;;;;;;1999.90;999.90;;;;;;;;;;4974889;28;20038;-61
2023/04/16 05:11:14;;;;;;;1999.90;999.90;;;;;;;;;;4974860;28;20089;-62
2023/04/16 05:13:40;;;;;;;1999.90;999.90;;;;;;;;;;4974881;28;20111;-62
2023/04/16 05:16:06;;;;;;;1999.90;999.90;;;;;;;;;;4974779;28;20105;-62
2023/04/16 05:18:32;;;;;;;1999.90;999.90;;;;;;;;;;4974846;28;20054;-61
2023/04/16 05:20:58;;;;;;;1999.90;999.90;;;;;;;;;;4975037;28;20455;-61
2023/04/16 05:23:24;;;;;;;1999.90;999.90;;;;;;;;;;4974570;28;20019;-63
2023/04/16 05:25:50;;;;;;;1999.90;999.90;;;;;;;;;;4973631;28;20029;-61
2023/04/16 05:28:16;;;;;;;1999.90;999.90;;;;;;;;;;4973463;28;20413;-62
2023/04/16 05:30:43;;;;;;;1999.90;999.90;;;;;;;;;;4973467;28;20692;-61
2023/04/16 05:33:09;;;;;;;1999.90;999.90;;;;;;;;;;4973017;28;20031;-62
2023/04/16 05:35:35;;;;;;;1999.90;999.90;;;;;;;;;;4973307;28;20089;-61
2023/04/16 05:38:01;;;;;;;1999.90;999.90;;;;;;;;;;4973260;28;20042;-63
2023/04/16 05:40:27;;;;;;;1999.90;999.90;;;;;;;;;;4972913;28;20069;-61
2023/04/16 05:42:53;;;;;;;1999.90;999.90;;;;;;;;;;4973103;28;20493;-62
2023/04/16 05:45:19;;;;;;;1999.90;999.90;;;;;;;;;;4973081;28;20477;-62
2023/04/16 05:47:45;;;;;;;1999.90;999.90;;;;;;;;;;4952432;28;20038;-67
2023/04/16 05:50:11;;;;;;;1999.90;999.90;;;;;;;;;;4964360;28;20896;-63
2023/04/16 05:52:37;;;;;;;1999.90;999.90;;;;;;;;;;4962160;28;20035;-63
2023/04/16 05:55:04;;;;;;;1999.90;999.90;;;;;;;;;;4962630;28;20030;-61
2023/04/16 05:57:30;;;;;;;1999.90;999.90;;;;;;;;;;4964161;28;20030;-68
2023/04/16 05:59:56;;;;;;;1999.90;999.90;;;;;;;;;;4962436;28;20019;-62
2023/04/16 06:02:22;;;;;;;1999.90;999.90;;;;;;;;;;4962655;28;20536;-64
2023/04/16 06:04:48;;;;;;;1999.90;999.90;;;;;;;;;;4961445;28;20490;-61
2023/04/16 06:07:15;;;;;;;1999.90;999.90;;;;;;;;;;4962653;28;20033;-62
2023/04/16 06:09:41;;;;;;;1999.90;999.90;;;;;;;;;;4964589;28;20042;-62
2023/04/16 06:12:07;;;;;;;1999.90;999.90;;;;;;;;;;4962747;28;20019;-62
2023/04/16 06:14:33;;;;;;;1999.90;999.90;;;;;;;;;;4963742;28;20031;-68
2023/04/16 06:16:59;;;;;;;1999.90;999.90;;;;;;;;;;4961494;28;20388;-63
2023/04/16 06:19:25;;;;;;;1999.90;999.90;;;;;;;;;;4954438;28;20390;-63
2023/04/16 06:21:52;;;;;;;1999.90;999.90;;;;;;;;;;4940396;29;20119;-62
2023/04/16 06:24:18;;;;;;;1999.90;999.90;;;;;;;;;;4948302;29;20050;-61
2023/04/16 06:26:44;;;;;;;1999.90;999.90;;;;;;;;;;4945826;29;20395;-62
2023/04/16 06:29:10;;;;;;;1999.90;999.90;;;;;;;;;;4949431;29;20031;-63
2023/04/16 06:31:36;;;;;;;1999.90;999.90;;;;;;;;;;4949364;29;20152;-63
2023/04/16 06:34:02;;;;;;;1999.90;999.90;;;;;;;;;;4946854;29;20030;-63
2023/04/16 06:36:28;;;;;;;1999.90;999.90;;;;;;;;;;4930770;29;20513;-62
2023/04/16 06:38:54;;;;;;;1999.90;999.90;;;;;;;;;;4949185;29;20027;-66
2023/04/16 06:41:21;;;;;;;1999.90;999.90;;;;;;;;;;4949486;29;20030;-63
2023/04/16 06:43:47;;;;;;;1999.90;999.90;;;;;;;;;;4949151;29;20034;-63
2023/04/16 06:46:13;;;;;;;1999.90;999.90;;;;;;;;;;4947256;29;20027;-64
2023/04/16 06:48:39;;;;;;;1999.90;999.90;;;;;;;;;;4957227;28;20039;-62
2023/04/16 06:51:06;;;;;;;1999.90;999.90;;;;;;;;;;4973224;28;20026;-64
2023/04/16 06:53:32;;;;;;;1999.90;999.90;;;;;;;;;;4973125;28;20033;-64
2023/04/16 06:55:58;;;;;;;1999.90;999.90;;;;;;;;;;4971487;28;20035;-64
2023/04/16 06:58:24;;;;;;;1999.90;999.90;;;;;;;;;;4971350;28;20022;-63
2023/04/16 07:00:50;;;;;;;1999.90;999.90;;;;;;;;;;4971557;28;20556;-63
2023/04/16 07:03:16;;;;;;;1999.90;999.90;;;;;;;;;;4971209;28;20390;-68
2023/04/16 07:05:42;;;;;;;1999.90;999.90;;;;;;;;;;4971208;28;20019;-62
2023/04/16 07:08:08;;;;;;;1999.90;999.90;;;;;;;;;;4954021;28;20026;-62
2023/04/16 07:10:34;;;;;;;1999.90;999.90;;;;;;;;;;4971196;28;20101;-64
2023/04/16 07:13:01;;;;;;;1999.90;999.90;;;;;;;;;;4971182;28;20031;-65
2023/04/16 07:15:27;;;;;;;1999.90;999.90;;;;;;;;;;4972170;28;20031;-68
2023/04/16 07:17:53;;;;;;;1999.90;999.90;;;;;;;;;;4971903;28;20045;-66
2023/04/16 07:20:19;;;;;;;1999.90;999.90;;;;;;;;;;4971046;28;21087;-67
2023/04/16 07:22:45;;;;;;;1999.90;999.90;;;;;;;;;;4970811;28;20018;-67
2023/04/16 07:25:11;;;;;;;1999.90;999.90;;;;;;;;;;4970767;28;20022;-68
2023/04/16 07:27:37;;;;;;;1999.90;999.90;;;;;;;;;;4971700;28;20031;-67
2023/04/16 07:30:03;;;;;;;1999.90;999.90;;;;;;;;;;4971647;28;20038;-65
2023/04/16 07:32:29;;;;;;;1999.90;999.90;;;;;;;;;;4971854;28;20062;-68
2023/04/16 07:34:55;;;;;;;1999.90;999.90;;;;;;;;;;4971058;28;20026;-65
2023/04/16 07:37:22;;;;;;;1999.90;999.90;;;;;;;;;;4970645;28;20049;-66
2023/04/16 07:39:48;;;;;;;1999.90;999.90;;;;;;;;;;4971267;28;20018;-66
2023/04/16 07:42:14;;;;;;;1999.90;999.90;;;;;;;;;;4970974;28;20033;-63
2023/04/16 07:44:40;;;;;;;1999.90;999.90;;;;;;;;;;4971090;28;20034;-63
2023/04/16 07:47:06;;;;;;;1999.90;999.90;;;;;;;;;;4970897;28;20034;-62
2023/04/16 07:49:32;;;;;;;1999.90;999.90;;;;;;;;;;4954182;28;20053;-63
2023/04/16 07:51:58;;;;;;;1999.90;999.90;;;;;;;;;;4970626;28;20027;-63
2023/04/16 07:54:24;;;;;;;1999.90;999.90;;;;;;;;;;4970187;28;20039;-65
2023/04/16 07:56:50;;;;;;;1999.90;999.90;;;;;;;;;;4971802;28;20039;-65
2023/04/16 07:59:16;;;;;;;1999.90;999.90;;;;;;;;;;4971931;28;20041;-63
2023/04/16 08:01:42;;;;;;;1999.90;999.90;;;;;;;;;;4971265;28;20118;-63
2023/04/16 08:04:08;;;;;;;1999.90;999.90;;;;;;;;;;4971633;28;20023;-63
2023/04/16 08:06:34;;;;;;;1999.90;999.90;;;;;;;;;;4971347;28;20085;-65
2023/04/16 08:09:00;;;;;;;1999.90;999.90;;;;;;;;;;4970936;28;20045;-64
2023/04/16 08:11:26;;;;;;;1999.90;999.90;;;;;;;;;;4971272;28;20031;-64
2023/04/16 08:16:35;;;;;;;1999.90;999.90;;;;;;;;;;5098291;27;20117;-65
2023/04/16 08:19:02;;;;;;;1999.90;999.90;;;;;;;;;;5086605;28;20390;-66
2023/04/16 08:21:29;;;;;;;1999.90;999.90;;;;;;;;;;5087115;28;20032;-67
2023/04/16 08:23:55;;;;;;;1999.90;999.90;;;;;;;;;;5084221;28;20327;-66
2023/04/16 08:26:21;;;;;;;1999.90;999.90;;;;;;;;;;5086907;28;20085;-70
2023/04/16 08:28:47;;;;;;;1999.90;999.90;;;;;;;;;;5086038;28;20028;-67
